createdAt,value
2022-11-17T00:01:18.322Z,8.87
2022-11-17T00:04:03.719Z,6.33
2022-11-17T00:06:49.244Z,5.40
2022-11-17T00:09:37.501Z,6.53
2022-11-17T00:12:45.838Z,7.20
2022-11-17T00:15:31.189Z,6.17
2022-11-17T00:18:34.817Z,5.40
2022-11-17T00:21:21.543Z,6.10
2022-11-17T00:24:07.455Z,4.40
2022-11-17T00:27:03.771Z,11.33
2022-11-17T00:29:51.852Z,5.80
2022-11-17T00:32:55.518Z,6.20
2022-11-17T00:35:41.083Z,5.20
2022-11-17T00:38:26.228Z,6.10
2022-11-17T00:41:11.798Z,5.97
2022-11-17T00:43:57.112Z,5.80
2022-11-17T00:46:43.375Z,5.90
2022-11-17T00:49:31.203Z,5.07
2022-11-17T00:52:16.657Z,6.23
2022-11-17T00:55:03.126Z,6.00
2022-11-17T00:57:48.741Z,5.07
2022-11-17T01:00:36.459Z,4.80
2022-11-17T01:03:21.810Z,5.30
2022-11-17T01:06:10.885Z,6.27
2022-11-17T01:08:56.040Z,9.03
2022-11-17T01:11:42.678Z,5.23
2022-11-17T01:14:30.394Z,5.03
2022-11-17T01:17:15.884Z,4.57
2022-11-17T01:20:02.084Z,4.67
2022-11-17T01:22:47.673Z,5.33
2022-11-17T01:25:38.222Z,4.47
2022-11-17T01:28:23.379Z,4.70
2022-11-17T01:31:15.401Z,6.20
2022-11-17T01:34:01.914Z,5.07
2022-11-17T01:37:05.823Z,7.00
2022-11-17T01:39:54.419Z,4.93
2022-11-17T01:42:39.639Z,5.70
2022-11-17T01:45:28.915Z,4.67
2022-11-17T01:48:15.930Z,4.67
2022-11-17T01:51:01.300Z,5.37
2022-11-17T01:53:51.323Z,4.90
2022-11-17T01:56:41.711Z,4.63
2022-11-17T01:59:32.552Z,4.93
2022-11-17T02:02:19.091Z,5.30
2022-11-17T02:05:35.048Z,4.00
2022-11-17T02:08:28.542Z,5.20
2022-11-17T02:11:18.266Z,8.53
2022-11-17T02:14:05.306Z,5.43
2022-11-17T02:16:51.352Z,4.50
2022-11-17T02:19:41.917Z,5.23
2022-11-17T02:22:54.000Z,5.97
2022-11-17T02:25:42.255Z,4.43
2022-11-17T02:28:34.986Z,5.00
2022-11-17T02:31:29.891Z,5.10
2022-11-17T02:34:46.730Z,4.23
2022-11-17T02:37:45.607Z,7.47
2022-11-17T02:40:52.824Z,6.40
2022-11-17T02:44:05.500Z,5.33
2022-11-17T02:47:02.165Z,4.57
2022-11-17T02:49:53.591Z,7.60
2022-11-17T02:52:39.538Z,4.07
2022-11-17T02:55:25.174Z,5.10
2022-11-17T02:58:13.681Z,5.07
2022-11-17T03:01:08.116Z,4.40
2022-11-17T03:04:24.956Z,5.10
2022-11-17T03:07:41.780Z,3.97
2022-11-17T03:10:51.527Z,8.20
2022-11-17T03:13:45.783Z,5.20
2022-11-17T03:16:43.411Z,5.23
2022-11-17T03:20:16.230Z,4.80
2022-11-17T03:23:27.110Z,5.67
2022-11-17T03:26:17.107Z,6.03
2022-11-17T03:29:05.904Z,5.87
2022-11-17T03:31:56.996Z,5.43
2022-11-17T03:34:46.564Z,4.87
2022-11-17T03:37:34.382Z,6.40
2022-11-17T03:40:24.535Z,4.90
2022-11-17T03:43:16.476Z,4.77
2022-11-17T03:46:15.321Z,6.67
2022-11-17T03:49:32.034Z,4.50
2022-11-17T03:52:18.670Z,3.83
2022-11-17T03:55:04.964Z,5.17
2022-11-17T03:57:58.677Z,6.03
2022-11-17T04:00:49.821Z,6.40
2022-11-17T04:03:38.283Z,5.13
2022-11-17T04:06:24.304Z,6.50
2022-11-17T04:09:12.269Z,5.43
2022-11-17T04:12:16.101Z,6.70
2022-11-17T04:15:20.123Z,5.87
2022-11-17T04:18:06.222Z,5.00
2022-11-17T04:20:55.472Z,4.93
2022-11-17T04:23:40.712Z,7.90
2022-11-17T04:26:44.812Z,4.93
2022-11-17T04:29:30.903Z,8.87
2022-11-17T04:32:18.595Z,5.47
2022-11-17T04:35:03.951Z,5.43
2022-11-17T04:37:49.319Z,5.10
2022-11-17T04:40:54.498Z,4.80
2022-11-17T04:43:39.814Z,5.07
2022-11-17T04:46:26.757Z,5.30
2022-11-17T04:49:12.835Z,6.20
2022-11-17T04:52:01.676Z,5.20
2022-11-17T04:54:46.992Z,7.03
2022-11-17T04:57:32.641Z,4.80
2022-11-17T05:00:20.672Z,5.00
2022-11-17T05:03:06.011Z,7.00
2022-11-17T05:05:51.561Z,6.73
2022-11-17T05:08:40.831Z,5.23
2022-11-17T05:11:47.153Z,6.40
2022-11-17T05:14:32.584Z,5.10
2022-11-17T05:17:18.396Z,5.80
2022-11-17T05:20:04.172Z,6.63
2022-11-17T05:23:07.934Z,5.27
2022-11-17T05:25:56.365Z,10.10
2022-11-17T05:28:42.175Z,5.40
2022-11-17T05:31:28.974Z,7.37
2022-11-17T05:34:17.365Z,8.90
2022-11-17T05:37:02.565Z,7.17
2022-11-17T05:39:50.528Z,7.40
2022-11-17T05:42:35.933Z,6.53
2022-11-17T05:45:24.108Z,6.13
2022-11-17T05:48:09.454Z,5.47
2022-11-17T05:50:56.350Z,7.27
2022-11-17T05:53:42.115Z,6.53
2022-11-17T05:56:41.394Z,6.57
2022-11-17T05:59:43.095Z,6.90
2022-11-17T06:02:54.437Z,5.90
2022-11-17T06:05:40.041Z,5.60
2022-11-17T06:08:27.160Z,6.17
2022-11-17T06:11:16.911Z,8.13
2022-11-17T06:14:05.586Z,5.10
2022-11-17T06:16:58.300Z,6.97
2022-11-17T06:19:48.969Z,7.93
2022-11-17T06:22:35.552Z,6.60
2022-11-17T06:25:21.242Z,8.13
2022-11-17T06:28:10.349Z,7.00
2022-11-17T06:30:58.899Z,7.90
2022-11-17T06:33:45.474Z,6.80
2022-11-17T06:36:35.727Z,5.70
2022-11-17T06:39:20.986Z,7.40
2022-11-17T06:42:06.669Z,6.80
2022-11-17T06:44:51.902Z,5.87
2022-11-17T06:47:37.787Z,6.00
2022-11-17T06:50:23.071Z,8.70
2022-11-17T06:53:10.799Z,5.13
2022-11-17T06:56:11.723Z,6.43
2022-11-17T06:58:59.745Z,7.03
2022-11-17T07:01:44.942Z,6.00
2022-11-17T07:04:30.570Z,7.60
2022-11-17T07:07:16.039Z,6.50
2022-11-17T07:10:02.358Z,7.00
2022-11-17T07:12:48.001Z,6.40
2022-11-17T07:15:33.328Z,5.70
2022-11-17T07:18:22.522Z,11.97
2022-11-17T07:21:11.046Z,8.03
2022-11-17T07:23:57.453Z,6.90
2022-11-17T07:26:45.359Z,5.97
2022-11-17T07:29:32.696Z,5.70
2022-11-17T07:32:17.919Z,8.00
2022-11-17T07:35:05.882Z,5.90
2022-11-17T07:37:51.380Z,6.03
2022-11-17T07:40:37.244Z,6.00
2022-11-17T07:43:22.290Z,5.50
2022-11-17T07:46:11.054Z,6.00
2022-11-17T07:48:56.659Z,10.20
2022-11-17T07:51:42.195Z,4.90
2022-11-17T07:54:30.481Z,4.90
2022-11-17T07:57:15.794Z,5.93
2022-11-17T08:00:01.756Z,6.43
2022-11-17T08:02:47.230Z,4.93
2022-11-17T08:05:41.675Z,5.83
2022-11-17T08:08:31.348Z,5.80
2022-11-17T08:11:18.114Z,5.13
2022-11-17T08:14:03.718Z,4.53
2022-11-17T08:16:49.171Z,6.07
2022-11-17T08:19:35.029Z,4.50
2022-11-17T08:22:20.349Z,5.70
2022-11-17T08:25:06.299Z,4.40
2022-11-17T08:27:58.355Z,7.67
2022-11-17T08:30:44.444Z,6.27
2022-11-17T08:33:30.477Z,5.83
2022-11-17T08:36:16.012Z,5.00
2022-11-17T08:39:02.123Z,5.43
2022-11-17T08:41:47.334Z,6.03
2022-11-17T08:44:35.028Z,7.60
2022-11-17T08:47:20.774Z,8.67
2022-11-17T08:50:07.265Z,5.73
2022-11-17T08:52:53.170Z,7.70
2022-11-17T08:55:41.281Z,6.00
2022-11-17T08:58:29.583Z,8.40
2022-11-17T09:01:18.287Z,5.27
2022-11-17T09:04:05.278Z,5.43
2022-11-17T09:06:52.899Z,7.30
2022-11-17T09:09:38.258Z,8.60
2022-11-17T09:12:26.329Z,7.07
2022-11-17T09:15:12.327Z,6.90
2022-11-17T09:17:57.623Z,6.17
2022-11-17T09:20:45.912Z,10.90
2022-11-17T09:23:32.284Z,7.50
2022-11-17T09:26:17.926Z,7.30
2022-11-17T09:29:04.127Z,6.37
2022-11-17T09:31:49.956Z,8.43
2022-11-17T09:34:35.612Z,7.80
2022-11-17T09:37:22.594Z,5.80
2022-11-17T09:40:15.637Z,6.10
2022-11-17T09:43:04.609Z,8.27
2022-11-17T09:45:50.810Z,7.10
2022-11-17T09:49:08.445Z,5.30
2022-11-17T09:52:02.655Z,10.90
2022-11-17T09:54:59.037Z,6.77
2022-11-17T09:57:49.187Z,8.87
2022-11-17T10:00:36.697Z,7.73
2022-11-17T10:03:38.880Z,7.83
2022-11-17T10:06:31.850Z,9.53
2022-11-17T10:09:41.150Z,8.53
2022-11-17T10:12:37.060Z,9.23
2022-11-17T10:15:33.914Z,9.90
2022-11-17T10:18:21.676Z,7.90
2022-11-17T10:21:09.865Z,8.20
2022-11-17T10:24:00.173Z,7.93
2022-11-17T10:26:49.784Z,9.47
2022-11-17T10:29:35.248Z,9.80
2022-11-17T10:32:22.640Z,6.17
2022-11-17T10:35:31.543Z,9.27
2022-11-17T10:38:20.965Z,11.63
2022-11-17T10:41:14.812Z,7.57
2022-11-17T10:44:06.608Z,6.10
2022-11-17T10:47:08.073Z,7.70
2022-11-17T10:50:27.686Z,9.07
2022-11-17T10:53:27.893Z,6.40
2022-11-17T10:56:21.000Z,7.13
2022-11-17T10:59:09.578Z,10.20
2022-11-17T11:01:55.222Z,7.50
2022-11-17T11:04:40.650Z,8.33
2022-11-17T11:07:26.345Z,6.50
2022-11-17T11:10:19.864Z,9.83
2022-11-17T11:13:42.486Z,7.47
2022-11-17T11:16:32.520Z,8.73
2022-11-17T11:19:19.532Z,5.30
2022-11-17T11:22:24.002Z,9.77
2022-11-17T11:25:36.335Z,7.10
2022-11-17T11:28:54.295Z,6.13
2022-11-17T11:32:04.719Z,7.13
2022-11-17T11:34:52.937Z,6.30
2022-11-17T11:37:49.135Z,5.40
2022-11-17T11:40:44.518Z,6.93
2022-11-17T11:43:58.027Z,6.77
2022-11-17T11:46:55.771Z,8.30
2022-11-17T11:49:50.260Z,8.27
2022-11-17T11:52:40.308Z,5.80
2022-11-17T11:55:30.578Z,6.10
2022-11-17T11:58:24.351Z,6.10
2022-11-17T12:01:14.252Z,6.73
2022-11-17T12:04:27.889Z,8.23
2022-11-17T12:08:10.375Z,5.50
2022-11-17T12:11:25.458Z,4.73
2022-11-17T12:14:19.750Z,6.77
2022-11-17T12:17:23.534Z,5.37
2022-11-17T12:20:38.342Z,5.20
2022-11-17T12:23:46.018Z,6.57
2022-11-17T12:26:35.530Z,7.33
2022-11-17T12:29:21.089Z,7.40
2022-11-17T12:32:11.090Z,6.33
2022-11-17T12:35:25.378Z,5.00
2022-11-17T12:38:16.905Z,6.53
2022-11-17T12:41:02.586Z,5.23
2022-11-17T12:43:47.878Z,8.93
2022-11-17T12:46:33.539Z,7.97
2022-11-17T12:49:44.555Z,5.10
2022-11-17T12:52:57.245Z,6.07
2022-11-17T12:56:19.703Z,6.23
2022-11-17T12:59:27.081Z,5.37
2022-11-17T13:02:24.198Z,5.47
2022-11-17T13:05:20.923Z,5.60
2022-11-17T13:08:22.345Z,5.73
2022-11-17T13:11:14.770Z,13.03
2022-11-17T13:14:14.518Z,7.27
2022-11-17T13:17:00.856Z,8.27
2022-11-17T13:19:46.848Z,5.47
2022-11-17T13:22:35.369Z,7.90
2022-11-17T13:25:27.161Z,5.00
2022-11-17T13:28:30.464Z,5.40
2022-11-17T13:31:21.609Z,5.40
2022-11-17T13:34:13.554Z,6.30
2022-11-17T13:37:00.845Z,5.60
2022-11-17T13:40:00.120Z,5.53
2022-11-17T13:42:46.959Z,4.80
2022-11-17T13:45:32.557Z,5.00
2022-11-17T13:48:46.949Z,5.97
2022-11-17T13:51:42.155Z,5.20
2022-11-17T13:54:28.136Z,6.10
2022-11-17T13:57:28.827Z,5.07
2022-11-17T14:00:17.344Z,7.10
2022-11-17T14:03:07.803Z,7.93
2022-11-17T14:05:57.029Z,6.30
2022-11-17T14:09:01.832Z,6.60
2022-11-17T14:11:47.520Z,6.03
2022-11-17T14:14:36.633Z,6.47
2022-11-17T14:17:27.013Z,8.13
2022-11-17T14:20:24.607Z,6.10
2022-11-17T14:23:13.696Z,5.80
2022-11-17T14:26:03.716Z,4.90
2022-11-17T14:28:52.374Z,7.00
2022-11-17T14:31:38.414Z,6.47
2022-11-17T14:34:26.389Z,8.20
2022-11-17T14:37:11.842Z,5.63
2022-11-17T14:39:57.294Z,10.87
2022-11-17T14:42:42.480Z,6.70
2022-11-17T14:45:35.246Z,7.73
2022-11-17T14:48:23.071Z,6.40
2022-11-17T14:51:09.591Z,5.30
2022-11-17T14:53:54.749Z,5.40
2022-11-17T14:56:42.595Z,6.00
2022-11-17T14:59:30.555Z,8.83
2022-11-17T15:02:15.988Z,7.90
2022-11-17T15:05:04.345Z,5.87
2022-11-17T15:07:50.085Z,6.20
2022-11-17T15:10:41.934Z,6.43
2022-11-17T15:13:27.569Z,5.43
2022-11-17T15:16:12.843Z,7.70
2022-11-17T15:18:58.884Z,5.83
2022-11-17T15:21:44.367Z,7.40
2022-11-17T15:24:29.986Z,8.73
2022-11-17T15:27:16.426Z,7.43
2022-11-17T15:30:05.644Z,7.83
2022-11-17T15:32:51.241Z,13.40
2022-11-17T15:35:36.955Z,8.60
2022-11-17T15:38:22.283Z,7.03
2022-11-17T15:41:09.864Z,9.03
2022-11-17T15:43:56.044Z,7.70
2022-11-17T15:46:46.953Z,8.40
2022-11-17T15:49:33.087Z,8.33
2022-11-17T15:52:30.161Z,7.57
2022-11-17T15:55:27.132Z,7.27
2022-11-17T15:58:12.608Z,8.57
2022-11-17T16:01:31.323Z,7.93
2022-11-17T16:04:17.287Z,9.50
2022-11-17T16:07:04.267Z,7.00
2022-11-17T16:09:50.459Z,8.87
2022-11-17T16:12:36.803Z,10.00
2022-11-17T16:15:22.844Z,11.90
2022-11-17T16:18:08.663Z,16.10
2022-11-17T16:20:54.094Z,8.60
2022-11-17T16:23:43.239Z,8.80
2022-11-17T16:26:31.741Z,8.93
2022-11-17T16:29:17.920Z,8.63
2022-11-17T16:32:03.986Z,9.20
2022-11-17T16:34:49.997Z,10.17
2022-11-17T16:37:36.706Z,7.17
2022-11-17T16:40:23.416Z,11.47
2022-11-17T16:43:14.063Z,8.73
2022-11-17T16:45:59.739Z,7.03
2022-11-17T16:48:46.953Z,9.97
2022-11-17T16:51:37.837Z,8.40
2022-11-17T16:54:23.988Z,9.30
2022-11-17T16:57:09.710Z,8.30
2022-11-17T16:59:55.395Z,8.83
2022-11-17T17:02:43.604Z,9.50
2022-11-17T17:05:31.735Z,10.00
2022-11-17T17:08:16.846Z,8.10
2022-11-17T17:11:10.197Z,12.53
2022-11-17T17:13:56.703Z,14.00
2022-11-17T17:16:43.128Z,9.70
2022-11-17T17:19:28.580Z,9.53
2022-11-17T17:22:15.128Z,7.00
2022-11-17T17:25:00.653Z,7.73
2022-11-17T17:27:46.626Z,10.97
2022-11-17T17:30:32.406Z,9.03
2022-11-17T17:33:18.053Z,9.00
2022-11-17T17:36:08.491Z,11.13
2022-11-17T17:38:59.986Z,9.00
2022-11-17T17:41:46.674Z,11.57
2022-11-17T17:44:32.168Z,11.53
2022-11-17T17:47:17.855Z,8.20
2022-11-17T17:50:07.164Z,9.23
2022-11-17T17:52:52.940Z,10.60
2022-11-17T17:55:39.406Z,9.63
2022-11-17T17:58:25.752Z,10.20
2022-11-17T18:01:16.941Z,10.70
2022-11-17T18:04:05.170Z,9.60
2022-11-17T18:06:51.142Z,11.90
2022-11-17T18:09:39.537Z,13.00
2022-11-17T18:12:25.284Z,12.90
2022-11-17T18:15:11.731Z,12.43
2022-11-17T18:17:57.695Z,12.60
2022-11-17T18:20:43.167Z,13.27
2022-11-17T18:23:34.438Z,12.00
2022-11-17T18:26:25.927Z,15.53
2022-11-17T18:29:18.500Z,10.10
2022-11-17T18:32:05.248Z,11.67
2022-11-17T18:34:54.102Z,15.37
2022-11-17T18:37:42.229Z,13.17
2022-11-17T18:40:27.549Z,15.03
2022-11-17T18:43:15.377Z,10.90
2022-11-17T18:46:05.936Z,13.87
2022-11-17T18:48:52.801Z,12.70
2022-11-17T18:51:39.442Z,12.93
2022-11-17T18:54:27.918Z,12.70
2022-11-17T18:57:15.856Z,11.93
2022-11-17T19:00:05.193Z,9.47
2022-11-17T19:02:51.330Z,14.60
2022-11-17T19:05:39.484Z,10.80
2022-11-17T19:08:28.137Z,11.60
2022-11-17T19:11:16.159Z,13.10
2022-11-17T19:14:04.212Z,10.67
2022-11-17T19:16:53.828Z,12.10
2022-11-17T19:19:41.672Z,10.67
2022-11-17T19:22:27.312Z,12.40
2022-11-17T19:25:14.658Z,13.43
2022-11-17T19:28:00.434Z,12.80
2022-11-17T19:30:46.270Z,16.30
2022-11-17T19:33:35.786Z,11.27
2022-11-17T19:36:26.888Z,13.13
2022-11-17T19:39:17.059Z,13.47
2022-11-17T19:42:02.621Z,13.43
2022-11-17T19:44:51.652Z,12.10
2022-11-17T19:47:39.430Z,12.53
2022-11-17T19:50:25.727Z,13.67
2022-11-17T19:53:11.371Z,13.27
2022-11-17T19:56:01.775Z,14.33
2022-11-17T19:58:48.052Z,14.40
2022-11-17T20:01:34.190Z,13.43
2022-11-17T20:04:19.777Z,15.77
2022-11-17T20:07:05.832Z,13.27
2022-11-17T20:09:51.969Z,14.47
2022-11-17T20:12:41.294Z,14.90
2022-11-17T20:15:34.443Z,14.80
2022-11-17T20:18:20.597Z,15.43
2022-11-17T20:21:07.097Z,14.97
2022-11-17T20:23:56.298Z,14.33
2022-11-17T20:26:43.108Z,12.80
2022-11-17T20:29:31.036Z,13.33
2022-11-17T20:32:16.588Z,19.77
2022-11-17T20:35:04.015Z,19.73
2022-11-17T20:37:51.992Z,13.20
2022-11-17T20:40:42.291Z,15.93
2022-11-17T20:43:28.988Z,14.80
2022-11-17T20:46:14.537Z,12.43
2022-11-17T20:49:00.056Z,11.10
2022-11-17T20:51:46.634Z,15.00
2022-11-17T20:54:32.398Z,11.83
2022-11-17T20:57:21.044Z,16.87
2022-11-17T21:00:07.440Z,11.17
2022-11-17T21:02:52.678Z,9.93
2022-11-17T21:05:40.928Z,14.20
2022-11-17T21:08:35.369Z,13.27
2022-11-17T21:11:43.632Z,11.20
2022-11-17T21:14:30.625Z,12.30
2022-11-17T21:17:36.697Z,15.57
2022-11-17T21:20:22.086Z,11.03
2022-11-17T21:23:07.846Z,11.63
2022-11-17T21:25:53.340Z,13.20
2022-11-17T21:28:39.082Z,12.00
2022-11-17T21:31:28.279Z,18.13
2022-11-17T21:34:19.593Z,13.53
2022-11-17T21:37:05.091Z,11.50
2022-11-17T21:39:52.163Z,13.17
2022-11-17T21:42:40.106Z,10.27
2022-11-17T21:45:28.252Z,8.63
2022-11-17T21:48:13.773Z,9.93
2022-11-17T21:51:02.942Z,11.30
2022-11-17T21:53:56.041Z,10.87
2022-11-17T21:56:43.950Z,12.00
2022-11-17T21:59:29.405Z,16.10
2022-11-17T22:02:18.105Z,17.83
2022-11-17T22:05:03.589Z,11.57
2022-11-17T22:07:49.210Z,21.47
2022-11-17T22:10:39.186Z,10.93
2022-11-17T22:13:27.706Z,11.87
2022-11-17T22:16:17.328Z,14.37
2022-11-17T22:19:03.557Z,12.83
2022-11-17T22:21:51.271Z,10.67
2022-11-17T22:24:39.541Z,12.00
2022-11-17T22:27:28.244Z,13.10
2022-11-17T22:30:14.592Z,11.17
2022-11-17T22:33:00.060Z,11.07
2022-11-17T22:35:46.881Z,10.67
2022-11-17T22:38:32.493Z,16.03
2022-11-17T22:41:20.715Z,12.63
2022-11-17T22:44:06.816Z,10.70
2022-11-17T22:46:56.989Z,13.87
2022-11-17T22:49:42.502Z,10.83
2022-11-17T22:52:28.489Z,12.03
2022-11-17T22:55:14.322Z,15.33
2022-11-17T22:57:59.721Z,12.73
2022-11-17T23:00:45.733Z,13.20
2022-11-17T23:03:34.220Z,12.23
2022-11-17T23:06:22.893Z,13.33
2022-11-17T23:09:08.506Z,12.43
2022-11-17T23:11:54.480Z,14.93
2022-11-17T23:14:39.702Z,11.97
2022-11-17T23:17:25.632Z,15.00
2022-11-17T23:20:11.775Z,13.20
2022-11-17T23:22:59.242Z,12.23
2022-11-17T23:25:47.901Z,15.27
2022-11-17T23:28:35.461Z,17.77
2022-11-17T23:31:23.847Z,15.83
2022-11-17T23:34:13.024Z,11.07
2022-11-17T23:37:03.329Z,14.03
2022-11-17T23:39:49.344Z,13.50
2022-11-17T23:42:40.095Z,15.40
2022-11-17T23:45:30.510Z,14.97
2022-11-17T23:48:15.710Z,15.17
2022-11-17T23:51:05.967Z,17.40
2022-11-17T23:53:51.196Z,20.90
2022-11-17T23:56:36.532Z,15.63
2022-11-17T23:59:22.254Z,15.20
